createdAt,value
2016-05-31T00:00:35.140Z,17.44
2016-05-31T00:01:35.252Z,17.53
2016-05-31T00:02:35.192Z,17.47
2016-05-31T00:03:35.148Z,17.54
2016-05-31T00:04:34.947Z,17.41
2016-05-31T00:05:37.903Z,17.53
2016-05-31T00:06:35.000Z,17.44
2016-05-31T00:07:34.971Z,17.37
2016-05-31T00:08:37.661Z,17.35
2016-05-31T00:09:34.914Z,17.41
2016-05-31T00:10:46.669Z,17.41
2016-05-31T00:11:37.998Z,17.46
2016-05-31T00:12:34.751Z,17.39
2016-05-31T00:13:34.674Z,17.44
2016-05-31T00:14:34.474Z,17.39
2016-05-31T00:15:37.602Z,17.39
2016-05-31T00:16:34.543Z,17.41
2016-05-31T00:17:37.482Z,17.44
2016-05-31T00:18:34.437Z,17.37
2016-05-31T00:19:34.379Z,17.41
2016-05-31T00:20:34.351Z,17.38
2016-05-31T00:21:37.321Z,17.41
2016-05-31T00:22:34.261Z,17.38
2016-05-31T00:23:34.514Z,17.37
2016-05-31T00:24:34.172Z,17.28
2016-05-31T00:25:34.098Z,17.35
2016-05-31T00:26:37.069Z,17.35
2016-05-31T00:27:34.041Z,17.27
2016-05-31T00:28:33.824Z,17.38
2016-05-31T00:29:33.937Z,17.3
2016-05-31T00:30:33.892Z,17.28
2016-05-31T00:31:36.833Z,17.3
2016-05-31T00:32:33.616Z,17.34
2016-05-31T00:33:33.588Z,17.28
2016-05-31T00:34:33.372Z,17.28
2016-05-31T00:35:33.719Z,17.23
2016-05-31T00:36:33.799Z,17.28
2016-05-31T00:37:33.411Z,17.23
2016-05-31T00:38:36.663Z,17.31
2016-05-31T00:39:33.449Z,17.31
2016-05-31T00:40:36.435Z,17.28
2016-05-31T00:41:33.218Z,17.27
2016-05-31T00:42:36.346Z,17.23
2016-05-31T00:43:33.287Z,17.23
2016-05-31T00:44:33.227Z,17.27
2016-05-31T00:45:33.167Z,17.28
2016-05-31T00:46:36.170Z,17.22
2016-05-31T00:47:33.095Z,17.24
2016-05-31T00:48:36.363Z,17.23
2016-05-31T00:49:32.991Z,17.2
2016-05-31T00:50:32.978Z,17.2
2016-05-31T00:51:32.917Z,17.22
2016-05-31T00:52:36.484Z,17.14
2016-05-31T00:53:35.814Z,17.23
2016-05-31T00:54:32.614Z,17.2
2016-05-31T00:55:32.725Z,17.19
2016-05-31T00:56:35.728Z,17.19
2016-05-31T00:57:32.622Z,17.17
2016-05-31T00:58:32.561Z,17.16
2016-05-31T00:59:32.580Z,17.14
2016-05-31T01:00:32.489Z,17.17
2016-05-31T01:01:32.647Z,17.14
2016-05-31T01:02:35.400Z,17.17
2016-05-31T01:03:32.356Z,17.23
2016-05-31T01:04:32.297Z,17.2
2016-05-31T01:05:32.268Z,17.17
2016-05-31T01:06:32.192Z,17.19
2016-05-31T01:07:39.008Z,17.2
2016-05-31T01:08:32.901Z,17.17
2016-05-31T01:09:32.122Z,17.17
2016-05-31T01:10:32.000Z,17.12
2016-05-31T01:11:31.971Z,17.04
2016-05-31T01:12:31.927Z,17.2
2016-05-31T01:13:34.868Z,17.14
2016-05-31T01:14:34.838Z,17.07
2016-05-31T01:15:37.795Z,17.12
2016-05-31T01:16:31.579Z,17.1
2016-05-31T01:17:34.690Z,17.09
2016-05-31T01:18:34.646Z,17.1
2016-05-31T01:19:31.571Z,17.13
2016-05-31T01:20:31.542Z,17.09
2016-05-31T01:21:37.982Z,17.09
2016-05-31T01:22:31.298Z,17.04
2016-05-31T01:23:31.269Z,17.13
2016-05-31T01:24:37.445Z,17.12
2016-05-31T01:25:34.322Z,17.05
2016-05-31T01:26:31.356Z,17.14
2016-05-31T01:27:31.202Z,17.09
2016-05-31T01:28:31.376Z,17.05
2016-05-31T01:29:34.145Z,17.12
2016-05-31T01:30:37.070Z,17.01
2016-05-31T01:31:37.056Z,17.02
2016-05-31T01:32:30.981Z,17.09
2016-05-31T01:33:33.936Z,17.05
2016-05-31T01:34:31.112Z,17.05
2016-05-31T01:35:30.849Z,17.09
2016-05-31T01:36:30.788Z,17.1
2016-05-31T01:37:30.776Z,17.2
2016-05-31T01:38:30.560Z,17.1
2016-05-31T01:39:30.656Z,17.05
2016-05-31T01:40:33.596Z,17.07
2016-05-31T01:41:30.568Z,17.07
2016-05-31T01:42:30.726Z,17.1
2016-05-31T01:43:30.698Z,17.1
2016-05-31T01:44:33.248Z,17.16
2016-05-31T01:45:30.376Z,17.05
2016-05-31T01:46:30.518Z,17.09
2016-05-31T01:47:39.318Z,17.07
2016-05-31T01:48:30.493Z,17.04
2016-05-31T01:49:30.183Z,17.12
2016-05-31T01:50:32.998Z,17.14
2016-05-31T01:51:33.392Z,17.05
2016-05-31T01:52:30.051Z,17.09
2016-05-31T01:53:33.006Z,17.14
2016-05-31T01:54:29.946Z,17.1
2016-05-31T01:55:29.903Z,17.02
2016-05-31T01:56:29.702Z,16.99
2016-05-31T01:57:29.798Z,16.97
2016-05-31T01:58:29.754Z,16.98
2016-05-31T01:59:29.553Z,16.97
2016-05-31T02:00:29.666Z,16.98
2016-05-31T02:01:32.622Z,16.98
2016-05-31T02:02:29.828Z,16.94
2016-05-31T02:03:29.517Z,16.98
2016-05-31T02:04:32.333Z,16.97
2016-05-31T02:05:29.632Z,17.04
2016-05-31T02:06:29.229Z,17.13
2016-05-31T02:07:29.544Z,16.98
2016-05-31T02:08:32.546Z,17.02
2016-05-31T02:09:29.236Z,16.94
2016-05-31T02:10:32.224Z,17.02
2016-05-31T02:11:29.008Z,17.02
2016-05-31T02:12:29.105Z,16.99
2016-05-31T02:13:29.076Z,16.97
2016-05-31T02:14:28.860Z,16.98
2016-05-31T02:15:28.957Z,16.89
2016-05-31T02:16:28.912Z,16.94
2016-05-31T02:17:28.915Z,17.04
2016-05-31T02:18:31.840Z,16.98
2016-05-31T02:19:28.796Z,16.98
2016-05-31T02:20:28.751Z,17.01
2016-05-31T02:21:31.894Z,16.97
2016-05-31T02:22:31.615Z,16.98
2016-05-31T02:23:37.618Z,16.91
2016-05-31T02:24:28.574Z,16.98
2016-05-31T02:25:31.530Z,16.99
2016-05-31T02:26:28.455Z,17.01
2016-05-31T02:27:31.254Z,16.91
2016-05-31T02:28:31.382Z,16.89
2016-05-31T02:29:28.323Z,16.98
2016-05-31T02:30:28.778Z,16.87
2016-05-31T02:31:31.421Z,16.86
2016-05-31T02:32:34.017Z,16.86
2016-05-31T02:33:31.348Z,16.92
2016-05-31T02:34:28.086Z,16.97
2016-05-31T02:35:28.026Z,16.86
2016-05-31T02:36:28.028Z,16.86
2016-05-31T02:37:27.937Z,16.95
2016-05-31T02:38:30.814Z,16.86
2016-05-31T02:39:30.692Z,16.89
2016-05-31T02:40:30.649Z,16.87
2016-05-31T02:41:30.776Z,16.92
2016-05-31T02:42:27.529Z,16.98
2016-05-31T02:43:27.657Z,16.98
2016-05-31T02:44:30.628Z,16.94
2016-05-31T02:45:27.583Z,16.98
2016-05-31T02:46:30.524Z,16.86
2016-05-31T02:47:27.542Z,16.83
2016-05-31T02:48:30.623Z,16.94
2016-05-31T02:49:27.376Z,16.86
2016-05-31T02:50:27.176Z,16.84
2016-05-31T02:51:30.304Z,16.89
2016-05-31T02:52:27.306Z,16.83
2016-05-31T02:53:27.199Z,16.84
2016-05-31T02:54:27.139Z,16.86
2016-05-31T02:55:27.079Z,16.82
2016-05-31T02:56:27.035Z,16.84
2016-05-31T02:57:30.101Z,16.83
2016-05-31T02:58:26.931Z,16.83
2016-05-31T02:59:26.903Z,16.84
2016-05-31T03:00:26.858Z,16.82
2016-05-31T03:01:26.815Z,16.79
2016-05-31T03:02:26.739Z,16.8
2016-05-31T03:03:26.726Z,16.82
2016-05-31T03:04:26.525Z,16.84
2016-05-31T03:05:26.466Z,16.82
2016-05-31T03:06:26.765Z,16.82
2016-05-31T03:07:26.517Z,16.82
2016-05-31T03:08:26.850Z,16.84
2016-05-31T03:09:26.289Z,16.89
2016-05-31T03:10:26.401Z,16.86
2016-05-31T03:11:26.341Z,16.92
2016-05-31T03:12:32.530Z,16.92
2016-05-31T03:13:26.253Z,16.83
2016-05-31T03:14:32.240Z,16.8
2016-05-31T03:15:32.008Z,16.86
2016-05-31T03:16:32.121Z,16.89
2016-05-31T03:17:29.076Z,16.89
2016-05-31T03:18:29.219Z,16.86
2016-05-31T03:19:26.191Z,16.82
2016-05-31T03:20:26.115Z,16.83
2016-05-31T03:21:31.884Z,16.82
2016-05-31T03:22:31.699Z,16.82
2016-05-31T03:23:25.952Z,16.86
2016-05-31T03:24:34.595Z,16.84
2016-05-31T03:25:28.520Z,16.86
2016-05-31T03:26:25.632Z,16.82
2016-05-31T03:27:31.618Z,16.79
2016-05-31T03:28:28.386Z,16.82
2016-05-31T03:29:31.499Z,16.82
2016-05-31T03:30:25.470Z,16.79
2016-05-31T03:31:25.395Z,16.77
2016-05-31T03:32:28.617Z,16.74
2016-05-31T03:33:28.384Z,16.77
2016-05-31T03:34:25.590Z,16.74
2016-05-31T03:35:31.250Z,16.83
2016-05-31T03:36:25.159Z,16.82
2016-05-31T03:37:25.114Z,16.73
2016-05-31T03:38:28.258Z,16.68
2016-05-31T03:39:28.042Z,16.69
2016-05-31T03:40:24.966Z,16.65
2016-05-31T03:41:24.906Z,16.69
2016-05-31T03:42:25.080Z,16.74
2016-05-31T03:43:24.880Z,16.82
2016-05-31T03:44:27.805Z,16.86
2016-05-31T03:45:24.744Z,16.77
2016-05-31T03:46:30.920Z,16.72
2016-05-31T03:47:24.641Z,16.65
2016-05-31T03:48:24.596Z,16.82
2016-05-31T03:49:24.553Z,16.73
2016-05-31T03:50:24.493Z,16.66
2016-05-31T03:51:24.479Z,16.66
2016-05-31T03:52:27.405Z,16.69
2016-05-31T03:53:27.860Z,16.79
2016-05-31T03:54:27.332Z,16.77
2016-05-31T03:55:27.116Z,16.74
2016-05-31T03:56:24.228Z,16.79
2016-05-31T03:57:24.184Z,16.72
2016-05-31T03:58:24.140Z,16.64
2016-05-31T03:59:24.079Z,16.73
2016-05-31T04:00:27.082Z,16.69
2016-05-31T04:01:27.006Z,16.77
2016-05-31T04:02:23.995Z,16.82
2016-05-31T04:03:29.887Z,16.68
2016-05-31T04:04:29.842Z,16.86
2016-05-31T04:05:23.799Z,16.73
2016-05-31T04:06:26.755Z,16.73
2016-05-31T04:07:23.757Z,16.69
2016-05-31T04:08:23.947Z,16.65
2016-05-31T04:09:26.467Z,16.65
2016-05-31T04:10:23.422Z,16.82
2016-05-31T04:11:23.518Z,16.65
2016-05-31T04:12:26.475Z,16.83
2016-05-31T04:13:23.430Z,16.79
2016-05-31T04:14:32.432Z,16.66
2016-05-31T04:15:26.544Z,16.76
2016-05-31T04:16:26.344Z,16.76
2016-05-31T04:17:23.066Z,16.84
2016-05-31T04:18:23.193Z,16.68
2016-05-31T04:19:26.165Z,16.83
2016-05-31T04:20:23.105Z,16.65
2016-05-31T04:21:26.060Z,16.72
2016-05-31T04:22:26.063Z,16.8
2016-05-31T04:23:22.972Z,16.66
2016-05-31T04:24:25.913Z,16.68
2016-05-31T04:25:25.852Z,16.77
2016-05-31T04:26:23.324Z,16.69
2016-05-31T04:27:25.796Z,16.79
2016-05-31T04:28:22.720Z,16.73
2016-05-31T04:29:22.534Z,16.82
2016-05-31T04:30:22.615Z,16.72
2016-05-31T04:31:25.619Z,16.84
2016-05-31T04:32:25.387Z,16.72
2016-05-31T04:33:25.702Z,16.74
2016-05-31T04:34:22.659Z,16.73
2016-05-31T04:35:22.395Z,16.73
2016-05-31T04:36:22.194Z,16.74
2016-05-31T04:37:22.135Z,16.66
2016-05-31T04:38:25.262Z,16.83
2016-05-31T04:39:28.062Z,16.79
2016-05-31T04:40:22.002Z,16.79
2016-05-31T04:41:22.318Z,16.79
2016-05-31T04:42:28.070Z,16.76
2016-05-31T04:43:22.010Z,16.76
2016-05-31T04:44:21.794Z,16.76
2016-05-31T04:45:24.953Z,16.79
2016-05-31T04:46:24.878Z,16.77
2016-05-31T04:47:24.818Z,16.79
2016-05-31T04:48:21.774Z,16.79
2016-05-31T04:49:24.730Z,16.8
2016-05-31T04:50:21.576Z,16.86
2016-05-31T04:51:21.641Z,16.73
2016-05-31T04:52:24.597Z,16.83
2016-05-31T04:53:21.757Z,16.79
2016-05-31T04:54:24.524Z,16.83
2016-05-31T04:55:24.496Z,16.89
2016-05-31T04:56:27.623Z,16.86
2016-05-31T04:57:24.376Z,16.84
2016-05-31T04:58:21.363Z,16.8
2016-05-31T04:59:24.256Z,16.87
2016-05-31T05:00:21.213Z,16.86
2016-05-31T05:01:24.168Z,16.87
2016-05-31T05:02:21.139Z,16.91
2016-05-31T05:03:23.940Z,16.84
2016-05-31T05:04:26.879Z,16.95
2016-05-31T05:05:24.179Z,16.87
2016-05-31T05:06:21.337Z,16.89
2016-05-31T05:07:23.904Z,16.89
2016-05-31T05:08:23.859Z,16.97
2016-05-31T05:09:27.205Z,16.98
2016-05-31T05:10:23.755Z,17.02
2016-05-31T05:11:23.710Z,17.02
2016-05-31T05:12:21.073Z,17.04
2016-05-31T05:13:20.669Z,16.98
2016-05-31T05:14:20.563Z,17.01
2016-05-31T05:15:23.722Z,16.94
2016-05-31T05:16:20.443Z,16.98
2016-05-31T05:17:23.430Z,17.02
2016-05-31T05:18:20.369Z,17.04
2016-05-31T05:19:23.342Z,16.98
2016-05-31T05:20:26.297Z,17.04
2016-05-31T05:21:20.066Z,17.07
2016-05-31T05:22:20.193Z,17.07
2016-05-31T05:23:20.602Z,17.07
2016-05-31T05:24:20.136Z,17.09
2016-05-31T05:25:20.013Z,17.09
2016-05-31T05:26:20.048Z,17.14
2016-05-31T05:27:20.004Z,17.2
2016-05-31T05:28:22.929Z,17.23
2016-05-31T05:29:29.259Z,17.19
2016-05-31T05:30:19.809Z,17.23
2016-05-31T05:31:19.749Z,17.2
2016-05-31T05:32:19.720Z,17.17
2016-05-31T05:33:19.489Z,17.27
2016-05-31T05:34:22.695Z,17.19
2016-05-31T05:35:25.791Z,17.28
2016-05-31T05:36:19.528Z,17.27
2016-05-31T05:37:22.687Z,17.27
2016-05-31T05:38:31.955Z,17.32
2016-05-31T05:39:19.395Z,17.38
2016-05-31T05:40:19.195Z,17.37
2016-05-31T05:41:22.306Z,17.42
2016-05-31T05:42:19.248Z,17.41
2016-05-31T05:43:19.469Z,17.52
2016-05-31T05:44:25.222Z,17.53
2016-05-31T05:45:24.942Z,17.54
2016-05-31T05:46:18.899Z,17.56
2016-05-31T05:47:22.011Z,17.63
2016-05-31T05:48:19.185Z,17.63
2016-05-31T05:49:18.766Z,17.6
2016-05-31T05:50:18.862Z,17.68
2016-05-31T05:51:19.022Z,17.68
2016-05-31T05:52:21.633Z,17.84
2016-05-31T05:53:23.260Z,17.73
2016-05-31T05:54:22.092Z,17.79
2016-05-31T05:55:21.704Z,17.82
2016-05-31T05:56:21.613Z,17.78
2016-05-31T05:57:21.546Z,17.79
2016-05-31T05:58:21.560Z,17.75
2016-05-31T05:59:18.371Z,17.66
2016-05-31T06:00:18.915Z,17.65
2016-05-31T06:01:18.319Z,17.6
2016-05-31T06:02:18.453Z,17.69
2016-05-31T06:03:18.605Z,17.71
2016-05-31T06:04:18.227Z,17.68
2016-05-31T06:05:21.333Z,17.76
2016-05-31T06:06:18.298Z,17.68
2016-05-31T06:07:21.480Z,17.65
2016-05-31T06:08:18.080Z,17.57
2016-05-31T06:09:21.243Z,17.69
2016-05-31T06:10:18.343Z,17.75
2016-05-31T06:11:21.099Z,17.79
2016-05-31T06:12:18.057Z,17.71
2016-05-31T06:13:20.998Z,17.76
2016-05-31T06:14:20.971Z,17.76
2016-05-31T06:15:20.929Z,17.76
2016-05-31T06:16:17.885Z,17.87
2016-05-31T06:17:17.842Z,17.91
2016-05-31T06:18:17.767Z,17.91
2016-05-31T06:19:23.770Z,18.02
2016-05-31T06:20:20.679Z,18.05
2016-05-31T06:21:20.635Z,18.15
2016-05-31T06:22:20.795Z,18.12
2016-05-31T06:23:18.047Z,18.19
2016-05-31T06:24:17.190Z,18.19
2016-05-31T06:25:17.460Z,18.16
2016-05-31T06:26:23.415Z,18.26
2016-05-31T06:27:17.371Z,18.15
2016-05-31T06:28:17.310Z,18.12
2016-05-31T06:29:17.126Z,18.16
2016-05-31T06:30:17.426Z,18.19
2016-05-31T06:31:17.178Z,18.13
2016-05-31T06:32:17.134Z,18.19
2016-05-31T06:33:17.089Z,18.13
2016-05-31T06:34:20.046Z,18.05
2016-05-31T06:35:19.986Z,18.06
2016-05-31T06:36:16.801Z,18.08
2016-05-31T06:37:19.897Z,18.02
2016-05-31T06:38:17.948Z,18.11
2016-05-31T06:39:16.793Z,18.11
2016-05-31T06:40:16.780Z,18.12
2016-05-31T06:41:19.720Z,18.13
2016-05-31T06:42:19.692Z,18.12
2016-05-31T06:43:22.633Z,18.09
2016-05-31T06:44:19.431Z,18.11
2016-05-31T06:45:19.544Z,18.09
2016-05-31T06:46:16.483Z,18.06
2016-05-31T06:47:16.440Z,18.09
2016-05-31T06:48:16.380Z,18.08
2016-05-31T06:49:16.336Z,18.13
2016-05-31T06:50:16.308Z,18.19
2016-05-31T06:51:16.263Z,18.23
2016-05-31T06:52:19.203Z,18.13
2016-05-31T06:53:19.377Z,18.19
2016-05-31T06:54:16.115Z,18.15
2016-05-31T06:55:15.899Z,18.09
2016-05-31T06:56:16.011Z,18.18
2016-05-31T06:57:18.998Z,18.09
2016-05-31T06:58:18.938Z,18.15
2016-05-31T06:59:16.160Z,18.21
2016-05-31T07:00:16.069Z,18.19
2016-05-31T07:01:18.821Z,18.21
2016-05-31T07:02:18.605Z,18.28
2016-05-31T07:03:18.967Z,18.36
2016-05-31T07:04:15.657Z,18.24
2016-05-31T07:05:15.613Z,18.36
2016-05-31T07:06:18.569Z,18.26
2016-05-31T07:07:15.509Z,18.31
2016-05-31T07:08:18.762Z,18.34
2016-05-31T07:09:18.421Z,18.45
2016-05-31T07:10:18.392Z,18.49
2016-05-31T07:11:18.333Z,18.55
2016-05-31T07:12:15.288Z,18.67
2016-05-31T07:13:22.885Z,18.81
2016-05-31T07:14:18.184Z,18.92
2016-05-31T07:15:15.140Z,18.89
2016-05-31T07:16:18.299Z,19
2016-05-31T07:17:15.052Z,18.94
2016-05-31T07:18:15.007Z,18.97
2016-05-31T07:19:17.964Z,19.08
2016-05-31T07:20:14.966Z,19.09
2016-05-31T07:21:14.938Z,19.09
2016-05-31T07:22:17.846Z,19.11
2016-05-31T07:23:17.912Z,19.11
2016-05-31T07:24:21.008Z,19.2
2016-05-31T07:25:17.573Z,19.2
2016-05-31T07:26:17.669Z,19.27
2016-05-31T07:27:14.829Z,19.26
2016-05-31T07:28:14.847Z,19.23
2016-05-31T07:29:17.381Z,19.23
2016-05-31T07:30:14.477Z,19.19
2016-05-31T07:31:17.433Z,19.19
2016-05-31T07:32:17.390Z,19.29
2016-05-31T07:33:14.548Z,19.17
2016-05-31T07:34:14.488Z,19.16
2016-05-31T07:35:14.334Z,19.15
2016-05-31T07:36:14.181Z,19.11
2016-05-31T07:37:17.262Z,19.11
2016-05-31T07:38:15.077Z,19.12
2016-05-31T07:39:14.486Z,19.32
2016-05-31T07:40:14.207Z,19.34
2016-05-31T07:41:14.023Z,19.3
2016-05-31T07:42:13.947Z,19.34
2016-05-31T07:43:13.872Z,19.42
2016-05-31T07:44:13.842Z,19.41
2016-05-31T07:45:14.096Z,19.42
2016-05-31T07:46:13.943Z,19.52
2016-05-31T07:47:13.726Z,19.48
2016-05-31T07:48:13.838Z,19.48
2016-05-31T07:49:16.747Z,19.48
2016-05-31T07:50:13.563Z,19.37
2016-05-31T07:51:13.534Z,19.42
2016-05-31T07:52:13.333Z,19.49
2016-05-31T07:53:13.305Z,19.48
2016-05-31T07:54:13.229Z,19.56
2016-05-31T07:55:16.623Z,19.6
2016-05-31T07:56:13.532Z,19.53
2016-05-31T07:57:13.441Z,19.55
2016-05-31T07:58:13.209Z,19.48
2016-05-31T07:59:13.165Z,19.63
2016-05-31T08:00:13.121Z,19.55
2016-05-31T08:01:13.077Z,19.48
2016-05-31T08:02:16.048Z,19.49
2016-05-31T08:03:16.003Z,19.47
2016-05-31T08:04:13.163Z,19.55
2016-05-31T08:05:15.900Z,19.49
2016-05-31T08:06:12.856Z,19.57
2016-05-31T08:07:12.842Z,19.62
2016-05-31T08:08:12.767Z,19.62
2016-05-31T08:09:12.722Z,19.71
2016-05-31T08:10:12.663Z,19.74
2016-05-31T08:11:12.620Z,19.71
2016-05-31T08:12:12.434Z,19.85
2016-05-31T08:13:12.374Z,19.9
2016-05-31T08:14:12.940Z,19.9
2016-05-31T08:15:12.442Z,19.89
2016-05-31T08:16:12.086Z,20
2016-05-31T08:17:12.572Z,19.87
2016-05-31T08:18:12.419Z,19.97
2016-05-31T08:19:12.186Z,19.93
2016-05-31T08:20:12.221Z,20.03
2016-05-31T08:21:12.021Z,20.08
2016-05-31T08:22:12.649Z,20.14
2016-05-31T08:23:11.932Z,20.17
2016-05-31T08:24:12.091Z,20.22
2016-05-31T08:25:21.000Z,20.27
2016-05-31T08:26:12.003Z,20.27
2016-05-31T08:27:12.146Z,20.27
2016-05-31T08:28:11.868Z,20.36
2016-05-31T08:29:11.823Z,20.39
2016-05-31T08:30:14.796Z,20.46
2016-05-31T08:31:11.923Z,20.36
2016-05-31T08:32:11.926Z,20.44
2016-05-31T08:33:11.646Z,20.37
2016-05-31T08:34:11.493Z,20.34
2016-05-31T08:35:11.402Z,20.4
2016-05-31T08:36:11.545Z,20.4
2016-05-31T08:37:11.315Z,20.4
2016-05-31T08:38:14.504Z,20.36
2016-05-31T08:39:11.866Z,20.29
2016-05-31T08:40:14.337Z,20.27
2016-05-31T08:41:11.481Z,20.24
2016-05-31T08:42:11.234Z,20.1
2016-05-31T08:43:17.189Z,20.1
2016-05-31T08:44:17.208Z,19.97
2016-05-31T08:45:11.132Z,19.97
2016-05-31T08:46:11.056Z,19.9
2016-05-31T08:47:14.059Z,19.84
2016-05-31T08:48:13.969Z,19.9
2016-05-31T08:49:10.909Z,19.87
2016-05-31T08:50:16.895Z,20.03
2016-05-31T08:51:10.852Z,20
2016-05-31T08:52:10.791Z,20.12
2016-05-31T08:53:10.919Z,20.11
2016-05-31T08:54:10.703Z,20.17
2016-05-31T08:55:10.738Z,20.08
2016-05-31T08:56:10.615Z,20.08
2016-05-31T08:57:10.602Z,20.1
2016-05-31T08:58:10.574Z,20.1
2016-05-31T08:59:10.466Z,20.15
2016-05-31T09:00:10.282Z,20.1
2016-05-31T09:01:13.394Z,20.11
2016-05-31T09:02:10.943Z,20.21
2016-05-31T09:03:10.305Z,20.18
2016-05-31T09:04:13.277Z,20.12
2016-05-31T09:05:10.201Z,20.19
2016-05-31T09:06:10.204Z,20.14
2016-05-31T09:07:10.332Z,20.21
2016-05-31T09:08:10.069Z,20.08
2016-05-31T09:09:09.900Z,20.08
2016-05-31T09:10:10.199Z,20.18
2016-05-31T09:11:09.998Z,20.21
2016-05-31T09:12:09.986Z,20.22
2016-05-31T09:13:09.692Z,20.3
2016-05-31T09:14:12.882Z,20.3
2016-05-31T09:15:12.775Z,20.37
2016-05-31T09:16:09.715Z,20.44
2016-05-31T09:17:09.717Z,20.59
2016-05-31T09:18:09.628Z,20.58
2016-05-31T09:19:09.583Z,20.74
2016-05-31T09:20:09.758Z,20.77
2016-05-31T09:21:09.510Z,20.78
2016-05-31T09:22:09.295Z,20.85
2016-05-31T09:23:10.390Z,20.83
2016-05-31T09:24:12.378Z,20.77
2016-05-31T09:25:12.349Z,20.89
2016-05-31T09:26:12.321Z,20.92
2016-05-31T09:27:12.323Z,21.03
2016-05-31T09:28:15.217Z,21.13
2016-05-31T09:29:15.157Z,21.13
2016-05-31T09:30:29.519Z,21.07
2016-05-31T09:31:09.115Z,21.15
2016-05-31T09:32:09.025Z,21.07
2016-05-31T09:33:15.042Z,21.07
2016-05-31T09:34:11.936Z,21.1
2016-05-31T09:35:11.985Z,21.05
2016-05-31T09:36:11.862Z,21.2
2016-05-31T09:37:08.804Z,21.22
2016-05-31T09:38:11.775Z,21.26
2016-05-31T09:39:12.199Z,21.2
2016-05-31T09:40:08.515Z,21.04
2016-05-31T09:41:08.501Z,21.14
2016-05-31T09:42:09.192Z,21.04
2016-05-31T09:43:08.944Z,21.07
2016-05-31T09:44:08.431Z,21.05
2016-05-31T09:45:08.434Z,21.08
2016-05-31T09:46:11.406Z,21.19
2016-05-31T09:47:08.361Z,21.19
2016-05-31T09:48:11.380Z,21.25
2016-05-31T09:49:08.133Z,21.15
2016-05-31T09:50:08.276Z,21.15
2016-05-31T09:51:08.184Z,21.17
2016-05-31T09:52:08.062Z,21.35
2016-05-31T09:53:07.939Z,21.29
2016-05-31T09:54:08.817Z,21.29
2016-05-31T09:55:08.149Z,21.23
2016-05-31T09:56:08.433Z,21.28
2016-05-31T09:57:10.966Z,21.26
2016-05-31T09:58:07.922Z,21.2
2016-05-31T09:59:10.862Z,21.2
2016-05-31T10:00:11.022Z,21.2
2016-05-31T10:01:07.743Z,21.15
2016-05-31T10:02:07.902Z,21.2
2016-05-31T10:03:07.560Z,21.35
2016-05-31T10:04:13.626Z,21.33
2016-05-31T10:05:07.784Z,21.43
2016-05-31T10:06:07.585Z,21.4
2016-05-31T10:07:07.712Z,21.51
2016-05-31T10:08:10.746Z,21.59
2016-05-31T10:09:07.420Z,21.58
2016-05-31T10:10:07.565Z,21.65
2016-05-31T10:11:07.535Z,21.65
2016-05-31T10:12:16.679Z,21.6
2016-05-31T10:13:07.947Z,21.56
2016-05-31T10:14:07.465Z,21.53
2016-05-31T10:15:10.217Z,21.47
2016-05-31T10:16:10.096Z,21.43
2016-05-31T10:17:07.239Z,21.51
2016-05-31T10:18:10.023Z,21.43
2016-05-31T10:19:06.947Z,21.43
2016-05-31T10:20:06.920Z,21.32
2016-05-31T10:21:06.703Z,21.29
2016-05-31T10:22:06.939Z,21.19
2016-05-31T10:23:10.256Z,21.11
2016-05-31T10:24:12.789Z,21.03
2016-05-31T10:25:09.900Z,21.11
2016-05-31T10:26:06.544Z,21.13
2016-05-31T10:27:06.625Z,21.2
2016-05-31T10:28:09.800Z,21.15
2016-05-31T10:29:09.755Z,21.19
2016-05-31T10:30:09.493Z,21.23
2016-05-31T10:31:06.449Z,21.26
2016-05-31T10:32:06.654Z,21.4
2016-05-31T10:33:09.376Z,21.4
2016-05-31T10:34:06.316Z,21.44
2016-05-31T10:35:06.271Z,21.47
2016-05-31T10:36:06.259Z,21.47
2016-05-31T10:37:06.355Z,21.51
2016-05-31T10:38:06.155Z,21.33
2016-05-31T10:39:06.126Z,21.38
2016-05-31T10:40:05.910Z,21.4
2016-05-31T10:41:06.007Z,21.5
2016-05-31T10:42:06.056Z,21.54
2016-05-31T10:43:05.809Z,21.63
2016-05-31T10:44:05.874Z,21.59
2016-05-31T10:45:11.845Z,21.62
2016-05-31T10:46:05.848Z,21.58
2016-05-31T10:47:06.476Z,21.6
2016-05-31T10:48:05.697Z,21.51
2016-05-31T10:49:08.888Z,21.6
2016-05-31T10:50:06.531Z,21.58
2016-05-31T10:51:08.878Z,21.54
2016-05-31T10:52:05.520Z,21.54
2016-05-31T10:53:09.163Z,21.45
2016-05-31T10:54:08.276Z,21.48
2016-05-31T10:55:08.403Z,21.45
2016-05-31T10:56:05.359Z,21.32
2016-05-31T10:57:05.519Z,21.23
2016-05-31T10:58:05.271Z,21.2
2016-05-31T10:59:08.461Z,21.15
2016-05-31T11:00:05.183Z,21.17
2016-05-31T11:01:08.763Z,21.1
2016-05-31T11:02:05.282Z,20.96
2016-05-31T11:03:05.063Z,21
2016-05-31T11:04:08.193Z,20.92
2016-05-31T11:05:04.974Z,20.85
2016-05-31T11:06:05.227Z,20.82
2016-05-31T11:07:07.888Z,20.82
2016-05-31T11:08:14.346Z,20.88
2016-05-31T11:09:07.801Z,20.9
2016-05-31T11:10:04.801Z,20.96
2016-05-31T11:11:04.818Z,21.15
2016-05-31T11:12:04.665Z,21.19
2016-05-31T11:13:05.106Z,21.26
2016-05-31T11:14:04.498Z,21.45
2016-05-31T11:15:04.955Z,21.53
2016-05-31T11:16:04.410Z,21.56
2016-05-31T11:17:04.632Z,21.51
2016-05-31T11:18:04.479Z,21.6
2016-05-31T11:19:04.278Z,21.77
2016-05-31T11:20:04.140Z,21.8
2016-05-31T11:21:07.286Z,21.81
2016-05-31T11:22:07.226Z,21.89
2016-05-31T11:23:10.807Z,22.03
2016-05-31T11:24:04.198Z,22.01
2016-05-31T11:25:10.125Z,21.94
2016-05-31T11:26:04.078Z,21.88
2016-05-31T11:27:04.003Z,21.8
2016-05-31T11:28:03.942Z,21.7
2016-05-31T11:29:03.914Z,21.77
2016-05-31T11:30:07.325Z,21.63
2016-05-31T11:31:03.919Z,21.51
2016-05-31T11:32:03.766Z,21.62
2016-05-31T11:33:03.862Z,21.51
2016-05-31T11:34:03.756Z,21.53
2016-05-31T11:35:03.665Z,21.51
2016-05-31T11:36:06.607Z,21.45
2016-05-31T11:37:03.420Z,21.32
2016-05-31T11:38:03.407Z,21.3
2016-05-31T11:39:04.503Z,21.25
2016-05-31T11:40:03.443Z,21.13
2016-05-31T11:41:03.228Z,21.08
2016-05-31T11:42:03.355Z,21.07
2016-05-31T11:43:03.326Z,21
2016-05-31T11:44:06.473Z,20.93
2016-05-31T11:45:03.223Z,20.83
2016-05-31T11:46:03.226Z,20.83
2016-05-31T11:47:12.137Z,20.71
2016-05-31T11:48:02.918Z,20.74
2016-05-31T11:49:03.030Z,20.63
2016-05-31T11:50:03.736Z,20.63
2016-05-31T11:51:05.817Z,20.6
2016-05-31T11:52:02.976Z,20.58
2016-05-31T11:53:03.073Z,20.53
2016-05-31T11:54:08.890Z,20.58
2016-05-31T11:55:02.797Z,20.55
2016-05-31T11:56:02.736Z,20.53
2016-05-31T11:57:02.552Z,20.59
2016-05-31T11:58:02.633Z,20.56
2016-05-31T11:59:02.605Z,20.63
2016-05-31T12:00:02.575Z,20.63
2016-05-31T12:01:02.516Z,20.6
2016-05-31T12:02:11.333Z,20.58
2016-05-31T12:03:02.458Z,20.68
2016-05-31T12:04:02.572Z,20.7
2016-05-31T12:05:02.871Z,20.75
2016-05-31T12:06:02.483Z,20.83
2016-05-31T12:07:02.079Z,20.9
2016-05-31T12:08:05.612Z,20.95
2016-05-31T12:09:02.444Z,21
2016-05-31T12:10:02.119Z,21.05
2016-05-31T12:11:02.293Z,21.14
2016-05-31T12:12:02.077Z,21.17
2016-05-31T12:13:05.267Z,21.3
2016-05-31T12:14:04.816Z,21.33
2016-05-31T12:15:02.148Z,21.37
2016-05-31T12:16:01.853Z,21.33
2016-05-31T12:17:01.809Z,21.44
2016-05-31T12:18:01.765Z,21.44
2016-05-31T12:19:01.751Z,21.58
2016-05-31T12:20:01.676Z,21.54
2016-05-31T12:21:01.835Z,21.65
2016-05-31T12:22:04.588Z,21.77
2016-05-31T12:23:02.013Z,21.91
2016-05-31T12:24:04.797Z,22.03
2016-05-31T12:25:02.158Z,22.14
2016-05-31T12:26:04.348Z,22.18
2016-05-31T12:27:10.370Z,22.28
2016-05-31T12:28:04.604Z,22.26
2016-05-31T12:29:01.263Z,22.4
2016-05-31T12:30:01.516Z,22.38
2016-05-31T12:31:01.394Z,22.36
2016-05-31T12:32:10.180Z,22.33
2016-05-31T12:33:04.117Z,22.36
2016-05-31T12:34:01.119Z,22.25
2016-05-31T12:35:04.232Z,22.3
2016-05-31T12:36:04.266Z,22.23
2016-05-31T12:37:04.160Z,22.31
2016-05-31T12:38:06.881Z,22.23
2016-05-31T12:39:00.883Z,22.23
2016-05-31T12:40:03.824Z,22.18
2016-05-31T12:41:00.763Z,22.26
2016-05-31T12:42:03.766Z,22.26
2016-05-31T12:43:03.910Z,22.19
2016-05-31T12:44:00.647Z,22.31
2016-05-31T12:45:06.618Z,22.38
2016-05-31T12:46:00.559Z,22.43
2016-05-31T12:47:00.514Z,22.49
2016-05-31T12:48:00.501Z,22.7
2016-05-31T12:49:04.505Z,22.91
2016-05-31T12:50:03.429Z,23.1
2016-05-31T12:51:00.370Z,23.18
2016-05-31T12:52:03.325Z,23.39
2016-05-31T12:53:00.500Z,23.34
2016-05-31T12:54:03.486Z,23.33
2016-05-31T12:55:00.192Z,23.36